sensor_id;sensor_type;location;lat;lon;timestamp;temperature;humidity
24250;DHT22;12379;49.820;8.648;2023-04-06T00:01:51;2.30;97.20
24250;DHT22;12379;49.820;8.648;2023-04-06T00:04:16;2.20;97.90
24250;DHT22;12379;49.820;8.648;2023-04-06T00:06:42;2.30;98.00
24250;DHT22;12379;49.820;8.648;2023-04-06T00:09:08;2.30;98.20
24250;DHT22;12379;49.820;8.648;2023-04-06T00:11:33;2.30;98.20
24250;DHT22;12379;49.820;8.648;2023-04-06T00:13:59;2.30;98.30
24250;DHT22;12379;49.820;8.648;2023-04-06T00:16:25;2.30;98.80
24250;DHT22;12379;49.820;8.648;2023-04-06T00:18:51;2.30;98.70
24250;DHT22;12379;49.820;8.648;2023-04-06T00:21:16;2.40;99.00
24250;DHT22;12379;49.820;8.648;2023-04-06T00:23:42;2.50;98.10
24250;DHT22;12379;49.820;8.648;2023-04-06T00:26:11;2.40;98.20
24250;DHT22;12379;49.820;8.648;2023-04-06T00:28:37;2.40;98.40
24250;DHT22;12379;49.820;8.648;2023-04-06T00:31:03;2.40;98.60
24250;DHT22;12379;49.820;8.648;2023-04-06T00:33:29;2.40;98.30
24250;DHT22;12379;49.820;8.648;2023-04-06T00:35:54;2.40;98.40
24250;DHT22;12379;49.820;8.648;2023-04-06T00:38:21;2.30;98.40
24250;DHT22;12379;49.820;8.648;2023-04-06T00:40:47;2.30;99.10
24250;DHT22;12379;49.820;8.648;2023-04-06T00:43:13;2.00;99.90
24250;DHT22;12379;49.820;8.648;2023-04-06T00:45:42;1.90;99.90
24250;DHT22;12379;49.820;8.648;2023-04-06T00:48:08;2.10;99.90
24250;DHT22;12379;49.820;8.648;2023-04-06T00:50:34;2.10;99.90
24250;DHT22;12379;49.820;8.648;2023-04-06T00:53:00;2.30;99.90
24250;DHT22;12379;49.820;8.648;2023-04-06T00:55:29;2.50;99.90
24250;DHT22;12379;49.820;8.648;2023-04-06T00:57:58;2.60;99.10
24250;DHT22;12379;49.820;8.648;2023-04-06T01:00:25;2.50;99.10
24250;DHT22;12379;49.820;8.648;2023-04-06T01:02:51;2.40;99.90
24250;DHT22;12379;49.820;8.648;2023-04-06T01:05:16;2.30;99.90
24250;DHT22;12379;49.820;8.648;2023-04-06T01:07:42;2.30;99.90
24250;DHT22;12379;49.820;8.648;2023-04-06T01:10:08;2.20;99.90
24250;DHT22;12379;49.820;8.648;2023-04-06T01:12:33;2.20;99.90
24250;DHT22;12379;49.820;8.648;2023-04-06T01:14:59;2.10;99.90
24250;DHT22;12379;49.820;8.648;2023-04-06T01:17:25;1.90;99.90
24250;DHT22;12379;49.820;8.648;2023-04-06T01:19:51;1.80;99.90
24250;DHT22;12379;49.820;8.648;2023-04-06T01:22:19;1.70;99.90
24250;DHT22;12379;49.820;8.648;2023-04-06T01:24:45;1.60;99.90
24250;DHT22;12379;49.820;8.648;2023-04-06T01:27:12;1.50;99.90
24250;DHT22;12379;49.820;8.648;2023-04-06T01:29:38;1.50;99.90
24250;DHT22;12379;49.820;8.648;2023-04-06T01:32:06;1.50;99.90
24250;DHT22;12379;49.820;8.648;2023-04-06T01:34:32;1.40;99.90
24250;DHT22;12379;49.820;8.648;2023-04-06T01:36:57;1.40;99.90
24250;DHT22;12379;49.820;8.648;2023-04-06T01:39:23;1.50;99.90
24250;DHT22;12379;49.820;8.648;2023-04-06T01:41:48;1.60;99.90
24250;DHT22;12379;49.820;8.648;2023-04-06T01:44:17;1.70;99.90
24250;DHT22;12379;49.820;8.648;2023-04-06T01:46:43;1.70;99.90
24250;DHT22;12379;49.820;8.648;2023-04-06T01:49:09;1.80;99.90
24250;DHT22;12379;49.820;8.648;2023-04-06T01:51:35;2.00;99.90
24250;DHT22;12379;49.820;8.648;2023-04-06T01:54:00;1.90;99.90
24250;DHT22;12379;49.820;8.648;2023-04-06T01:56:26;1.60;99.90
24250;DHT22;12379;49.820;8.648;2023-04-06T01:58:51;1.40;99.90
24250;DHT22;12379;49.820;8.648;2023-04-06T02:01:17;1.20;99.90
24250;DHT22;12379;49.820;8.648;2023-04-06T02:03:43;1.00;99.90
24250;DHT22;12379;49.820;8.648;2023-04-06T02:06:08;0.90;99.90
24250;DHT22;12379;49.820;8.648;2023-04-06T02:08:34;0.90;99.90
24250;DHT22;12379;49.820;8.648;2023-04-06T02:10:59;0.90;99.90
24250;DHT22;12379;49.820;8.648;2023-04-06T02:13:25;0.80;99.90
24250;DHT22;12379;49.820;8.648;2023-04-06T02:15:50;0.80;99.90
24250;DHT22;12379;49.820;8.648;2023-04-06T02:18:16;0.80;99.90
24250;DHT22;12379;49.820;8.648;2023-04-06T02:20:43;0.80;99.90
24250;DHT22;12379;49.820;8.648;2023-04-06T02:23:09;0.90;99.90
24250;DHT22;12379;49.820;8.648;2023-04-06T02:25:35;0.90;99.90
24250;DHT22;12379;49.820;8.648;2023-04-06T02:28:01;1.00;99.90
24250;DHT22;12379;49.820;8.648;2023-04-06T02:30:26;1.10;99.90
24250;DHT22;12379;49.820;8.648;2023-04-06T02:32:52;1.10;99.90
24250;DHT22;12379;49.820;8.648;2023-04-06T02:35:17;1.10;99.90
24250;DHT22;12379;49.820;8.648;2023-04-06T02:37:43;1.20;99.90
24250;DHT22;12379;49.820;8.648;2023-04-06T02:40:09;1.10;99.90
24250;DHT22;12379;49.820;8.648;2023-04-06T02:42:35;1.00;99.90
24250;DHT22;12379;49.820;8.648;2023-04-06T02:45:00;1.10;99.90
24250;DHT22;12379;49.820;8.648;2023-04-06T02:47:26;1.10;99.90
24250;DHT22;12379;49.820;8.648;2023-04-06T02:49:52;1.10;99.90
24250;DHT22;12379;49.820;8.648;2023-04-06T02:52:17;1.10;99.90
24250;DHT22;12379;49.820;8.648;2023-04-06T02:54:43;1.10;99.90
24250;DHT22;12379;49.820;8.648;2023-04-06T02:57:09;1.00;99.90
24250;DHT22;12379;49.820;8.648;2023-04-06T02:59:35;1.00;99.90
24250;DHT22;12379;49.820;8.648;2023-04-06T03:02:00;1.00;99.90
24250;DHT22;12379;49.820;8.648;2023-04-06T03:04:26;0.90;99.90
24250;DHT22;12379;49.820;8.648;2023-04-06T03:06:53;0.80;99.90
24250;DHT22;12379;49.820;8.648;2023-04-06T03:09:19;0.70;99.90
24250;DHT22;12379;49.820;8.648;2023-04-06T03:11:45;0.50;99.90
24250;DHT22;12379;49.820;8.648;2023-04-06T03:14:10;0.60;99.90
24250;DHT22;12379;49.820;8.648;2023-04-06T03:16:36;0.70;99.90
24250;DHT22;12379;49.820;8.648;2023-04-06T03:19:01;0.70;99.90
24250;DHT22;12379;49.820;8.648;2023-04-06T03:21:27;0.70;99.90
24250;DHT22;12379;49.820;8.648;2023-04-06T03:23:52;0.70;99.90
24250;DHT22;12379;49.820;8.648;2023-04-06T03:26:18;0.60;99.90
24250;DHT22;12379;49.820;8.648;2023-04-06T03:28:43;0.70;99.90
24250;DHT22;12379;49.820;8.648;2023-04-06T03:31:09;0.50;99.90
24250;DHT22;12379;49.820;8.648;2023-04-06T03:33:35;0.40;99.90
24250;DHT22;12379;49.820;8.648;2023-04-06T03:36:00;0.30;99.90
24250;DHT22;12379;49.820;8.648;2023-04-06T03:38:26;0.30;99.90
24250;DHT22;12379;49.820;8.648;2023-04-06T03:40:52;0.30;99.90
24250;DHT22;12379;49.820;8.648;2023-04-06T03:43:17;0.10;99.90
24250;DHT22;12379;49.820;8.648;2023-04-06T03:45:43;0.10;99.90
24250;DHT22;12379;49.820;8.648;2023-04-06T03:48:08;0.10;99.90
24250;DHT22;12379;49.820;8.648;2023-04-06T03:50:34;0.20;99.90
24250;DHT22;12379;49.820;8.648;2023-04-06T03:53:00;0.20;99.90
24250;DHT22;12379;49.820;8.648;2023-04-06T03:55:28;0.20;99.90
24250;DHT22;12379;49.820;8.648;2023-04-06T03:57:54;0.30;99.90
24250;DHT22;12379;49.820;8.648;2023-04-06T04:00:19;0.40;99.90
24250;DHT22;12379;49.820;8.648;2023-04-06T04:02:45;0.40;99.90
24250;DHT22;12379;49.820;8.648;2023-04-06T04:05:11;0.40;99.90
24250;DHT22;12379;49.820;8.648;2023-04-06T04:07:36;0.50;99.90
24250;DHT22;12379;49.820;8.648;2023-04-06T04:10:02;0.50;99.90
24250;DHT22;12379;49.820;8.648;2023-04-06T04:12:28;0.50;99.90
24250;DHT22;12379;49.820;8.648;2023-04-06T04:14:53;0.50;99.90
24250;DHT22;12379;49.820;8.648;2023-04-06T04:17:19;0.50;99.90
24250;DHT22;12379;49.820;8.648;2023-04-06T04:19:45;0.40;99.90
24250;DHT22;12379;49.820;8.648;2023-04-06T04:22:10;0.40;99.90
24250;DHT22;12379;49.820;8.648;2023-04-06T04:24:36;0.40;99.90
24250;DHT22;12379;49.820;8.648;2023-04-06T04:27:02;0.40;99.90
24250;DHT22;12379;49.820;8.648;2023-04-06T04:29:27;0.40;99.90
24250;DHT22;12379;49.820;8.648;2023-04-06T04:31:53;0.40;99.90
24250;DHT22;12379;49.820;8.648;2023-04-06T04:34:19;0.30;99.90
24250;DHT22;12379;49.820;8.648;2023-04-06T04:36:50;0.30;99.90
24250;DHT22;12379;49.820;8.648;2023-04-06T04:39:16;0.30;99.90
24250;DHT22;12379;49.820;8.648;2023-04-06T04:41:42;0.20;99.90
24250;DHT22;12379;49.820;8.648;2023-04-06T04:44:07;0.30;99.90
24250;DHT22;12379;49.820;8.648;2023-04-06T04:46:33;0.30;99.90
24250;DHT22;12379;49.820;8.648;2023-04-06T04:48:58;0.30;99.90
24250;DHT22;12379;49.820;8.648;2023-04-06T04:51:24;0.30;99.90
24250;DHT22;12379;49.820;8.648;2023-04-06T04:53:50;0.30;99.90
24250;DHT22;12379;49.820;8.648;2023-04-06T04:56:16;0.30;99.90
24250;DHT22;12379;49.820;8.648;2023-04-06T04:58:41;0.40;99.90
24250;DHT22;12379;49.820;8.648;2023-04-06T05:01:08;0.40;99.90
24250;DHT22;12379;49.820;8.648;2023-04-06T05:03:34;0.40;99.90
24250;DHT22;12379;49.820;8.648;2023-04-06T05:05:59;0.20;99.90
24250;DHT22;12379;49.820;8.648;2023-04-06T05:08:25;0.10;99.90
24250;DHT22;12379;49.820;8.648;2023-04-06T05:10:50;0.20;99.90
24250;DHT22;12379;49.820;8.648;2023-04-06T05:13:16;0.20;99.90
24250;DHT22;12379;49.820;8.648;2023-04-06T05:15:42;0.20;99.90
24250;DHT22;12379;49.820;8.648;2023-04-06T05:18:08;0.30;99.90
24250;DHT22;12379;49.820;8.648;2023-04-06T05:20:34;0.40;99.90
24250;DHT22;12379;49.820;8.648;2023-04-06T05:23:00;0.50;99.90
24250;DHT22;12379;49.820;8.648;2023-04-06T05:25:26;0.60;99.90
24250;DHT22;12379;49.820;8.648;2023-04-06T05:27:51;0.70;99.90
24250;DHT22;12379;49.820;8.648;2023-04-06T05:30:17;0.70;99.90
24250;DHT22;12379;49.820;8.648;2023-04-06T05:32:43;0.80;99.90
24250;DHT22;12379;49.820;8.648;2023-04-06T05:35:09;0.80;99.90
24250;DHT22;12379;49.820;8.648;2023-04-06T05:37:35;0.70;99.90
24250;DHT22;12379;49.820;8.648;2023-04-06T05:40:01;0.60;99.90
24250;DHT22;12379;49.820;8.648;2023-04-06T05:42:26;0.60;99.90
24250;DHT22;12379;49.820;8.648;2023-04-06T05:44:52;0.60;99.90
24250;DHT22;12379;49.820;8.648;2023-04-06T05:47:18;0.80;99.90
24250;DHT22;12379;49.820;8.648;2023-04-06T05:49:44;0.80;99.90
24250;DHT22;12379;49.820;8.648;2023-04-06T05:52:09;0.90;99.90
24250;DHT22;12379;49.820;8.648;2023-04-06T05:54:36;1.30;99.90
24250;DHT22;12379;49.820;8.648;2023-04-06T05:57:02;1.20;99.90
24250;DHT22;12379;49.820;8.648;2023-04-06T05:59:29;1.40;99.90
24250;DHT22;12379;49.820;8.648;2023-04-06T06:01:55;1.50;99.90
24250;DHT22;12379;49.820;8.648;2023-04-06T06:04:20;1.60;99.90
24250;DHT22;12379;49.820;8.648;2023-04-06T06:06:46;1.80;99.90
24250;DHT22;12379;49.820;8.648;2023-04-06T06:09:11;1.90;99.90
24250;DHT22;12379;49.820;8.648;2023-04-06T06:11:37;2.10;99.90
24250;DHT22;12379;49.820;8.648;2023-04-06T06:14:03;2.00;99.90
24250;DHT22;12379;49.820;8.648;2023-04-06T06:16:28;2.10;99.90
24250;DHT22;12379;49.820;8.648;2023-04-06T06:18:54;2.20;99.90
24250;DHT22;12379;49.820;8.648;2023-04-06T06:21:20;2.40;99.90
24250;DHT22;12379;49.820;8.648;2023-04-06T06:23:45;2.50;99.90
24250;DHT22;12379;49.820;8.648;2023-04-06T06:26:13;2.80;99.90
24250;DHT22;12379;49.820;8.648;2023-04-06T06:28:39;3.00;99.90
24250;DHT22;12379;49.820;8.648;2023-04-06T06:31:04;3.10;99.90
24250;DHT22;12379;49.820;8.648;2023-04-06T06:33:30;3.30;99.90
24250;DHT22;12379;49.820;8.648;2023-04-06T06:35:56;3.50;99.90
24250;DHT22;12379;49.820;8.648;2023-04-06T06:38:21;3.90;99.90
24250;DHT22;12379;49.820;8.648;2023-04-06T06:40:47;4.00;99.90
24250;DHT22;12379;49.820;8.648;2023-04-06T06:43:12;3.90;99.90
24250;DHT22;12379;49.820;8.648;2023-04-06T06:45:38;3.90;99.90
24250;DHT22;12379;49.820;8.648;2023-04-06T06:48:04;4.10;99.90
24250;DHT22;12379;49.820;8.648;2023-04-06T06:50:29;4.30;99.90
24250;DHT22;12379;49.820;8.648;2023-04-06T06:52:55;4.60;99.90
24250;DHT22;12379;49.820;8.648;2023-04-06T06:55:20;4.50;99.90
24250;DHT22;12379;49.820;8.648;2023-04-06T06:57:46;4.90;99.90
24250;DHT22;12379;49.820;8.648;2023-04-06T07:00:12;5.80;99.70
24250;DHT22;12379;49.820;8.648;2023-04-06T07:02:38;6.40;98.10
24250;DHT22;12379;49.820;8.648;2023-04-06T07:05:07;7.30;96.90
24250;DHT22;12379;49.820;8.648;2023-04-06T07:07:33;8.40;94.40
24250;DHT22;12379;49.820;8.648;2023-04-06T07:09:59;8.40;92.60
24250;DHT22;12379;49.820;8.648;2023-04-06T07:12:25;8.60;91.10
24250;DHT22;12379;49.820;8.648;2023-04-06T07:14:51;8.70;90.90
24250;DHT22;12379;49.820;8.648;2023-04-06T07:17:17;9.40;89.80
24250;DHT22;12379;49.820;8.648;2023-04-06T07:19:42;9.50;88.90
24250;DHT22;12379;49.820;8.648;2023-04-06T07:22:08;9.80;86.40
24250;DHT22;12379;49.820;8.648;2023-04-06T07:24:33;10.60;83.50
24250;DHT22;12379;49.820;8.648;2023-04-06T07:26:59;10.80;80.90
24250;DHT22;12379;49.820;8.648;2023-04-06T07:29:26;11.20;80.10
24250;DHT22;12379;49.820;8.648;2023-04-06T07:31:52;12.10;74.90
24250;DHT22;12379;49.820;8.648;2023-04-06T07:34:18;12.50;73.30
24250;DHT22;12379;49.820;8.648;2023-04-06T07:36:43;12.60;71.20
24250;DHT22;12379;49.820;8.648;2023-04-06T07:39:09;13.40;69.30
24250;DHT22;12379;49.820;8.648;2023-04-06T07:41:36;13.20;67.20
24250;DHT22;12379;49.820;8.648;2023-04-06T07:44:01;12.50;67.80
24250;DHT22;12379;49.820;8.648;2023-04-06T07:46:27;11.80;69.70
24250;DHT22;12379;49.820;8.648;2023-04-06T07:48:52;11.30;71.20
24250;DHT22;12379;49.820;8.648;2023-04-06T07:51:18;11.30;71.20
24250;DHT22;12379;49.820;8.648;2023-04-06T07:53:44;11.60;71.30
24250;DHT22;12379;49.820;8.648;2023-04-06T07:56:10;11.50;71.70
24250;DHT22;12379;49.820;8.648;2023-04-06T07:58:35;12.00;72.10
24250;DHT22;12379;49.820;8.648;2023-04-06T08:01:01;12.50;69.90
24250;DHT22;12379;49.820;8.648;2023-04-06T08:03:27;12.50;69.70
24250;DHT22;12379;49.820;8.648;2023-04-06T08:05:53;13.00;68.60
24250;DHT22;12379;49.820;8.648;2023-04-06T08:08:19;12.70;67.50
24250;DHT22;12379;49.820;8.648;2023-04-06T08:10:49;12.30;68.80
24250;DHT22;12379;49.820;8.648;2023-04-06T08:13:15;12.40;69.30
24250;DHT22;12379;49.820;8.648;2023-04-06T08:15:41;12.70;67.60
24250;DHT22;12379;49.820;8.648;2023-04-06T08:18:08;13.60;63.50
24250;DHT22;12379;49.820;8.648;2023-04-06T08:20:34;14.00;60.00
24250;DHT22;12379;49.820;8.648;2023-04-06T08:23:00;13.90;59.40
24250;DHT22;12379;49.820;8.648;2023-04-06T08:25:25;13.50;59.10
24250;DHT22;12379;49.820;8.648;2023-04-06T08:27:51;13.60;57.80
24250;DHT22;12379;49.820;8.648;2023-04-06T08:30:17;13.10;57.90
24250;DHT22;12379;49.820;8.648;2023-04-06T08:32:44;13.30;57.80
24250;DHT22;12379;49.820;8.648;2023-04-06T08:35:10;14.20;56.30
24250;DHT22;12379;49.820;8.648;2023-04-06T08:37:35;14.00;55.50
24250;DHT22;12379;49.820;8.648;2023-04-06T08:40:01;13.70;55.20
24250;DHT22;12379;49.820;8.648;2023-04-06T08:42:32;14.10;54.80
24250;DHT22;12379;49.820;8.648;2023-04-06T08:44:59;14.30;53.10
24250;DHT22;12379;49.820;8.648;2023-04-06T08:47:25;13.40;54.10
24250;DHT22;12379;49.820;8.648;2023-04-06T08:49:52;14.20;54.70
24250;DHT22;12379;49.820;8.648;2023-04-06T08:52:18;14.60;54.30
24250;DHT22;12379;49.820;8.648;2023-04-06T08:54:44;15.60;52.50
24250;DHT22;12379;49.820;8.648;2023-04-06T08:57:10;15.80;51.00
24250;DHT22;12379;49.820;8.648;2023-04-06T08:59:36;15.80;51.80
24250;DHT22;12379;49.820;8.648;2023-04-06T09:02:04;15.70;51.70
24250;DHT22;12379;49.820;8.648;2023-04-06T09:04:32;16.30;50.60
24250;DHT22;12379;49.820;8.648;2023-04-06T09:06:58;15.80;50.00
24250;DHT22;12379;49.820;8.648;2023-04-06T09:09:23;15.70;51.30
24250;DHT22;12379;49.820;8.648;2023-04-06T09:11:51;15.70;50.40
24250;DHT22;12379;49.820;8.648;2023-04-06T09:14:32;15.80;49.60
24250;DHT22;12379;49.820;8.648;2023-04-06T09:16:58;15.50;50.40
24250;DHT22;12379;49.820;8.648;2023-04-06T09:19:23;16.50;48.60
24250;DHT22;12379;49.820;8.648;2023-04-06T09:21:49;16.50;48.80
24250;DHT22;12379;49.820;8.648;2023-04-06T09:24:15;17.20;48.40
24250;DHT22;12379;49.820;8.648;2023-04-06T09:26:47;16.60;48.30
24250;DHT22;12379;49.820;8.648;2023-04-06T09:29:23;16.70;48.00
24250;DHT22;12379;49.820;8.648;2023-04-06T09:31:49;17.40;46.10
24250;DHT22;12379;49.820;8.648;2023-04-06T09:34:22;17.10;46.60
24250;DHT22;12379;49.820;8.648;2023-04-06T09:36:51;16.60;47.30
24250;DHT22;12379;49.820;8.648;2023-04-06T09:39:20;17.60;46.00
24250;DHT22;12379;49.820;8.648;2023-04-06T09:41:50;16.40;47.10
24250;DHT22;12379;49.820;8.648;2023-04-06T09:44:15;16.30;47.30
24250;DHT22;12379;49.820;8.648;2023-04-06T09:46:43;16.60;46.90
24250;DHT22;12379;49.820;8.648;2023-04-06T09:49:10;16.10;46.80
24250;DHT22;12379;49.820;8.648;2023-04-06T09:51:40;16.30;47.00
24250;DHT22;12379;49.820;8.648;2023-04-06T09:54:07;16.90;46.50
24250;DHT22;12379;49.820;8.648;2023-04-06T09:56:58;16.90;47.40
24250;DHT22;12379;49.820;8.648;2023-04-06T10:02:05;18.60;42.70
24250;DHT22;12379;49.820;8.648;2023-04-06T10:04:39;17.80;44.30
24250;DHT22;12379;49.820;8.648;2023-04-06T10:07:09;16.20;46.00
24250;DHT22;12379;49.820;8.648;2023-04-06T10:09:37;15.50;47.30
24250;DHT22;12379;49.820;8.648;2023-04-06T10:12:06;16.00;47.10
24250;DHT22;12379;49.820;8.648;2023-04-06T10:14:33;16.10;45.70
24250;DHT22;12379;49.820;8.648;2023-04-06T10:17:03;17.20;45.50
24250;DHT22;12379;49.820;8.648;2023-04-06T10:19:47;17.90;44.30
24250;DHT22;12379;49.820;8.648;2023-04-06T10:25:00;17.70;42.40
24250;DHT22;12379;49.820;8.648;2023-04-06T10:27:29;18.10;43.80
24250;DHT22;12379;49.820;8.648;2023-04-06T10:30:04;18.50;42.60
24250;DHT22;12379;49.820;8.648;2023-04-06T10:32:34;18.50;41.10
24250;DHT22;12379;49.820;8.648;2023-04-06T10:35:11;18.60;41.20
24250;DHT22;12379;49.820;8.648;2023-04-06T10:37:50;18.30;41.50
24250;DHT22;12379;49.820;8.648;2023-04-06T10:42:45;17.80;41.20
24250;DHT22;12379;49.820;8.648;2023-04-06T10:45:25;17.50;42.30
24250;DHT22;12379;49.820;8.648;2023-04-06T10:47:54;17.60;42.00
24250;DHT22;12379;49.820;8.648;2023-04-06T10:50:21;18.00;41.10
24250;DHT22;12379;49.820;8.648;2023-04-06T10:53:01;17.40;42.30
24250;DHT22;12379;49.820;8.648;2023-04-06T10:55:30;17.00;42.30
24250;DHT22;12379;49.820;8.648;2023-04-06T10:57:56;16.30;43.30
24250;DHT22;12379;49.820;8.648;2023-04-06T11:00:23;16.00;44.80
24250;DHT22;12379;49.820;8.648;2023-04-06T11:02:49;15.60;45.80
24250;DHT22;12379;49.820;8.648;2023-04-06T11:05:14;16.60;43.80
24250;DHT22;12379;49.820;8.648;2023-04-06T11:07:41;17.10;42.10
24250;DHT22;12379;49.820;8.648;2023-04-06T11:10:07;16.80;42.60
24250;DHT22;12379;49.820;8.648;2023-04-06T11:12:33;16.60;43.00
24250;DHT22;12379;49.820;8.648;2023-04-06T11:15:01;15.90;44.90
24250;DHT22;12379;49.820;8.648;2023-04-06T11:17:34;15.40;45.40
24250;DHT22;12379;49.820;8.648;2023-04-06T11:20:01;15.70;44.70
24250;DHT22;12379;49.820;8.648;2023-04-06T11:22:28;15.70;44.50
24250;DHT22;12379;49.820;8.648;2023-04-06T11:25:07;16.00;44.40
24250;DHT22;12379;49.820;8.648;2023-04-06T11:27:34;15.90;42.70
24250;DHT22;12379;49.820;8.648;2023-04-06T11:30:00;15.70;43.20
24250;DHT22;12379;49.820;8.648;2023-04-06T11:32:26;15.70;42.20
24250;DHT22;12379;49.820;8.648;2023-04-06T11:34:52;15.60;42.40
24250;DHT22;12379;49.820;8.648;2023-04-06T11:37:17;15.50;42.10
24250;DHT22;12379;49.820;8.648;2023-04-06T11:39:48;15.00;43.60
24250;DHT22;12379;49.820;8.648;2023-04-06T11:42:23;15.30;44.00
24250;DHT22;12379;49.820;8.648;2023-04-06T11:44:59;15.60;43.90
24250;DHT22;12379;49.820;8.648;2023-04-06T11:49:54;15.70;43.00
24250;DHT22;12379;49.820;8.648;2023-04-06T11:52:25;16.30;41.80
24250;DHT22;12379;49.820;8.648;2023-04-06T11:54:54;16.40;41.30
24250;DHT22;12379;49.820;8.648;2023-04-06T11:57:22;16.40;40.90
24250;DHT22;12379;49.820;8.648;2023-04-06T11:59:51;16.40;40.60
24250;DHT22;12379;49.820;8.648;2023-04-06T12:02:17;16.20;40.60
24250;DHT22;12379;49.820;8.648;2023-04-06T12:04:43;16.20;41.30
24250;DHT22;12379;49.820;8.648;2023-04-06T12:07:09;16.50;41.10
24250;DHT22;12379;49.820;8.648;2023-04-06T12:09:34;16.60;40.40
24250;DHT22;12379;49.820;8.648;2023-04-06T12:12:01;16.70;40.80
24250;DHT22;12379;49.820;8.648;2023-04-06T12:14:27;16.50;40.70
24250;DHT22;12379;49.820;8.648;2023-04-06T12:16:52;16.40;40.40
24250;DHT22;12379;49.820;8.648;2023-04-06T12:19:18;16.90;39.90
24250;DHT22;12379;49.820;8.648;2023-04-06T12:21:44;17.10;39.70
24250;DHT22;12379;49.820;8.648;2023-04-06T12:24:09;16.40;39.70
24250;DHT22;12379;49.820;8.648;2023-04-06T12:26:35;16.50;39.80
24250;DHT22;12379;49.820;8.648;2023-04-06T12:29:02;16.70;39.70
24250;DHT22;12379;49.820;8.648;2023-04-06T12:31:37;16.70;40.00
24250;DHT22;12379;49.820;8.648;2023-04-06T12:34:06;17.00;39.30
24250;DHT22;12379;49.820;8.648;2023-04-06T12:36:32;16.80;39.00
24250;DHT22;12379;49.820;8.648;2023-04-06T12:38:58;16.60;39.00
24250;DHT22;12379;49.820;8.648;2023-04-06T12:41:25;16.40;38.80
24250;DHT22;12379;49.820;8.648;2023-04-06T12:43:51;16.20;39.10
24250;DHT22;12379;49.820;8.648;2023-04-06T12:46:17;16.10;39.60
24250;DHT22;12379;49.820;8.648;2023-04-06T12:48:43;16.10;39.60
24250;DHT22;12379;49.820;8.648;2023-04-06T12:51:08;16.10;40.10
24250;DHT22;12379;49.820;8.648;2023-04-06T12:53:35;16.20;40.10
24250;DHT22;12379;49.820;8.648;2023-04-06T12:56:02;16.10;40.70
24250;DHT22;12379;49.820;8.648;2023-04-06T12:58:28;16.20;40.90
24250;DHT22;12379;49.820;8.648;2023-04-06T13:00:54;16.60;40.80
24250;DHT22;12379;49.820;8.648;2023-04-06T13:03:21;16.80;39.90
24250;DHT22;12379;49.820;8.648;2023-04-06T13:05:49;15.90;40.00
24250;DHT22;12379;49.820;8.648;2023-04-06T13:08:15;15.60;40.20
24250;DHT22;12379;49.820;8.648;2023-04-06T13:10:46;16.10;40.10
24250;DHT22;12379;49.820;8.648;2023-04-06T13:13:12;16.60;39.80
24250;DHT22;12379;49.820;8.648;2023-04-06T13:15:38;16.60;39.70
24250;DHT22;12379;49.820;8.648;2023-04-06T13:18:03;16.30;39.70
24250;DHT22;12379;49.820;8.648;2023-04-06T13:20:29;16.30;40.20
24250;DHT22;12379;49.820;8.648;2023-04-06T13:22:55;15.90;40.50
24250;DHT22;12379;49.820;8.648;2023-04-06T13:25:20;16.00;40.50
24250;DHT22;12379;49.820;8.648;2023-04-06T13:27:46;15.70;40.50
24250;DHT22;12379;49.820;8.648;2023-04-06T13:30:14;15.80;41.20
24250;DHT22;12379;49.820;8.648;2023-04-06T13:32:40;16.10;40.90
24250;DHT22;12379;49.820;8.648;2023-04-06T13:35:06;16.00;40.30
24250;DHT22;12379;49.820;8.648;2023-04-06T13:37:33;16.20;40.60
24250;DHT22;12379;49.820;8.648;2023-04-06T13:39:58;15.80;40.40
24250;DHT22;12379;49.820;8.648;2023-04-06T13:42:24;15.80;40.50
24250;DHT22;12379;49.820;8.648;2023-04-06T13:44:49;16.10;40.00
24250;DHT22;12379;49.820;8.648;2023-04-06T13:47:16;16.50;39.90
24250;DHT22;12379;49.820;8.648;2023-04-06T13:49:42;16.10;39.70
24250;DHT22;12379;49.820;8.648;2023-04-06T13:52:07;15.80;41.00
24250;DHT22;12379;49.820;8.648;2023-04-06T13:54:35;15.60;40.60
24250;DHT22;12379;49.820;8.648;2023-04-06T13:57:00;15.90;40.20
24250;DHT22;12379;49.820;8.648;2023-04-06T13:59:32;15.70;40.60
24250;DHT22;12379;49.820;8.648;2023-04-06T14:01:58;15.70;40.50
24250;DHT22;12379;49.820;8.648;2023-04-06T14:04:23;16.00;40.50
24250;DHT22;12379;49.820;8.648;2023-04-06T14:06:49;16.10;40.30
24250;DHT22;12379;49.820;8.648;2023-04-06T14:09:15;15.50;40.80
24250;DHT22;12379;49.820;8.648;2023-04-06T14:11:40;15.40;41.20
24250;DHT22;12379;49.820;8.648;2023-04-06T14:14:06;15.40;40.90
24250;DHT22;12379;49.820;8.648;2023-04-06T14:16:32;15.40;41.60
24250;DHT22;12379;49.820;8.648;2023-04-06T14:18:57;15.50;41.70
24250;DHT22;12379;49.820;8.648;2023-04-06T14:21:24;15.30;41.60
24250;DHT22;12379;49.820;8.648;2023-04-06T14:23:49;15.10;41.30
24250;DHT22;12379;49.820;8.648;2023-04-06T14:26:15;14.90;41.60
24250;DHT22;12379;49.820;8.648;2023-04-06T14:28:41;15.00;41.50
24250;DHT22;12379;49.820;8.648;2023-04-06T14:31:12;15.30;42.20
24250;DHT22;12379;49.820;8.648;2023-04-06T14:33:38;15.60;41.60
24250;DHT22;12379;49.820;8.648;2023-04-06T14:36:04;15.80;41.30
24250;DHT22;12379;49.820;8.648;2023-04-06T14:38:31;15.90;40.60
24250;DHT22;12379;49.820;8.648;2023-04-06T14:40:57;15.70;40.80
24250;DHT22;12379;49.820;8.648;2023-04-06T14:43:22;15.70;40.40
24250;DHT22;12379;49.820;8.648;2023-04-06T14:45:48;15.80;40.50
24250;DHT22;12379;49.820;8.648;2023-04-06T14:48:13;15.90;40.30
24250;DHT22;12379;49.820;8.648;2023-04-06T14:50:41;15.70;41.50
24250;DHT22;12379;49.820;8.648;2023-04-06T14:53:11;15.60;40.90
24250;DHT22;12379;49.820;8.648;2023-04-06T14:55:40;15.60;41.00
24250;DHT22;12379;49.820;8.648;2023-04-06T14:58:06;15.60;40.70
24250;DHT22;12379;49.820;8.648;2023-04-06T15:00:32;15.50;40.90
24250;DHT22;12379;49.820;8.648;2023-04-06T15:02:57;15.20;41.00
24250;DHT22;12379;49.820;8.648;2023-04-06T15:05:23;15.30;41.80
24250;DHT22;12379;49.820;8.648;2023-04-06T15:07:49;15.20;41.50
24250;DHT22;12379;49.820;8.648;2023-04-06T15:10:14;15.20;41.20
24250;DHT22;12379;49.820;8.648;2023-04-06T15:12:40;15.30;40.70
24250;DHT22;12379;49.820;8.648;2023-04-06T15:15:06;15.70;40.80
24250;DHT22;12379;49.820;8.648;2023-04-06T15:17:31;15.70;40.20
24250;DHT22;12379;49.820;8.648;2023-04-06T15:19:57;15.30;40.60
24250;DHT22;12379;49.820;8.648;2023-04-06T15:22:22;15.00;41.60
24250;DHT22;12379;49.820;8.648;2023-04-06T15:24:48;14.70;41.00
24250;DHT22;12379;49.820;8.648;2023-04-06T15:27:13;14.70;41.50
24250;DHT22;12379;49.820;8.648;2023-04-06T15:29:39;14.70;41.30
24250;DHT22;12379;49.820;8.648;2023-04-06T15:32:05;14.60;41.50
24250;DHT22;12379;49.820;8.648;2023-04-06T15:34:30;14.50;41.60
24250;DHT22;12379;49.820;8.648;2023-04-06T15:37:00;14.60;41.30
24250;DHT22;12379;49.820;8.648;2023-04-06T15:39:26;14.60;42.20
24250;DHT22;12379;49.820;8.648;2023-04-06T15:41:53;14.70;41.20
24250;DHT22;12379;49.820;8.648;2023-04-06T15:44:19;14.70;41.90